createdAt,value
2023-03-17T00:02:11.522Z,4.25
2023-03-17T00:04:39.591Z,4.23
2023-03-17T00:07:09.209Z,4.15
2023-03-17T00:09:37.264Z,4.08
2023-03-17T00:12:11.001Z,4.06
2023-03-17T00:14:40.077Z,4.03
2023-03-17T00:17:11.362Z,4.06
2023-03-17T00:19:41.628Z,4.03
2023-03-17T00:22:15.414Z,4.01
2023-03-17T00:24:43.564Z,3.98
2023-03-17T00:27:13.816Z,3.94
2023-03-17T00:29:42.296Z,3.95
2023-03-17T00:32:16.650Z,3.97
2023-03-17T00:34:46.610Z,3.95
2023-03-17T00:37:14.971Z,3.95
2023-03-17T00:39:43.516Z,4.01
2023-03-17T00:42:12.151Z,4.01
2023-03-17T00:44:41.682Z,3.98
2023-03-17T00:47:11.104Z,3.97
2023-03-17T00:49:41.856Z,3.94
2023-03-17T00:52:11.401Z,3.95
2023-03-17T00:54:40.068Z,3.95
2023-03-17T00:57:11.001Z,3.95
2023-03-17T00:59:42.276Z,3.97
2023-03-17T01:02:15.853Z,3.99
2023-03-17T01:04:52.716Z,3.97
2023-03-17T01:07:21.234Z,3.97
2023-03-17T01:09:49.920Z,3.94
2023-03-17T01:12:18.322Z,3.95
2023-03-17T01:14:46.967Z,3.92
2023-03-17T01:17:16.826Z,3.91
2023-03-17T01:19:46.710Z,3.88
2023-03-17T01:22:14.998Z,3.85
2023-03-17T01:24:45.342Z,3.84
2023-03-17T01:27:14.337Z,3.81
2023-03-17T01:29:43.277Z,3.80
2023-03-17T01:32:12.321Z,3.80
2023-03-17T01:34:40.877Z,3.80
2023-03-17T01:37:10.520Z,3.80
2023-03-17T01:39:40.100Z,3.80
2023-03-17T01:42:08.904Z,3.77
2023-03-17T01:44:37.103Z,3.73
2023-03-17T01:47:07.208Z,3.68
2023-03-17T01:49:37.437Z,3.70
2023-03-17T01:52:09.330Z,3.68
2023-03-17T01:54:44.190Z,3.67
2023-03-17T01:57:17.847Z,3.67
2023-03-17T01:59:49.700Z,3.67
2023-03-17T02:02:22.347Z,3.67
2023-03-17T02:04:55.024Z,3.64
2023-03-17T02:07:26.875Z,3.63
2023-03-17T02:10:00.480Z,3.61
2023-03-17T02:12:30.756Z,3.63
2023-03-17T02:15:00.010Z,3.60
2023-03-17T02:17:29.382Z,3.59
2023-03-17T02:19:58.025Z,3.59
2023-03-17T02:22:28.369Z,3.57
2023-03-17T02:24:59.478Z,3.56
2023-03-17T02:27:32.353Z,3.60
2023-03-17T02:30:01.176Z,3.59
2023-03-17T02:32:31.156Z,3.57
2023-03-17T02:35:01.721Z,3.59
2023-03-17T02:37:32.951Z,3.54
2023-03-17T02:40:02.073Z,3.59
2023-03-17T02:42:38.212Z,3.57
2023-03-17T02:45:07.904Z,3.57
2023-03-17T02:47:36.136Z,3.57
2023-03-17T02:50:05.073Z,3.57
2023-03-17T02:52:34.807Z,3.53
2023-03-17T02:55:04.299Z,3.56
2023-03-17T02:57:32.404Z,3.54
2023-03-17T03:00:00.640Z,3.54
2023-03-17T03:02:30.078Z,3.53
2023-03-17T03:04:58.178Z,3.51
2023-03-17T03:07:27.446Z,3.53
2023-03-17T03:09:57.319Z,3.53
2023-03-17T03:12:25.430Z,3.53
2023-03-17T03:14:54.581Z,3.51
2023-03-17T03:17:23.160Z,3.53
2023-03-17T03:19:51.502Z,3.51
2023-03-17T03:22:20.338Z,3.49
2023-03-17T03:24:52.145Z,3.51
2023-03-17T03:27:21.858Z,3.47
2023-03-17T03:29:50.255Z,3.50
2023-03-17T03:32:23.070Z,3.47
2023-03-17T03:34:52.504Z,3.49
2023-03-17T03:37:20.573Z,3.49
2023-03-17T03:39:50.481Z,3.46
2023-03-17T03:42:19.465Z,3.49
2023-03-17T03:44:49.102Z,3.46
2023-03-17T03:47:17.335Z,3.47
2023-03-17T03:49:46.656Z,3.47
2023-03-17T03:52:15.120Z,3.47
2023-03-17T03:54:43.468Z,3.46
2023-03-17T03:57:13.258Z,3.43
2023-03-17T03:59:41.527Z,3.40
2023-03-17T04:02:12.543Z,3.40
2023-03-17T04:04:41.375Z,3.41
2023-03-17T04:07:12.215Z,3.41
2023-03-17T04:09:40.761Z,3.40
2023-03-17T04:12:13.108Z,3.39
2023-03-17T04:14:41.503Z,3.39
2023-03-17T04:17:12.995Z,3.39
2023-03-17T04:19:42.552Z,3.40
2023-03-17T04:22:17.858Z,3.39
2023-03-17T04:24:48.930Z,3.37
2023-03-17T04:27:17.567Z,3.37
2023-03-17T04:29:46.100Z,3.36
2023-03-17T04:32:16.048Z,3.34
2023-03-17T04:34:45.016Z,3.34
2023-03-17T04:37:14.777Z,3.34
2023-03-17T04:39:42.845Z,3.30
2023-03-17T04:42:11.805Z,3.33
2023-03-17T04:44:40.311Z,3.27
2023-03-17T04:47:08.916Z,3.30
2023-03-17T04:49:40.606Z,3.29
2023-03-17T04:52:09.248Z,3.29
2023-03-17T04:54:37.986Z,3.24
2023-03-17T04:57:05.968Z,3.31
2023-03-17T04:59:36.301Z,3.31
2023-03-17T05:02:04.702Z,3.31
2023-03-17T05:04:32.690Z,3.33
2023-03-17T05:07:02.864Z,3.33
2023-03-17T05:09:31.058Z,3.36
2023-03-17T05:12:01.441Z,3.34
2023-03-17T05:14:29.744Z,3.33
2023-03-17T05:17:00.433Z,3.37
2023-03-17T05:19:30.932Z,3.36
2023-03-17T05:21:58.974Z,3.33
2023-03-17T05:24:34.653Z,3.39
2023-03-17T05:27:04.251Z,3.37
2023-03-17T05:29:32.500Z,3.37
2023-03-17T05:32:01.124Z,3.41
2023-03-17T05:34:29.309Z,3.41
2023-03-17T05:36:57.602Z,3.44
2023-03-17T05:39:28.129Z,3.46
2023-03-17T05:41:57.882Z,3.49
2023-03-17T05:44:26.655Z,3.50
2023-03-17T05:46:55.382Z,3.49
2023-03-17T05:49:24.767Z,3.85
2023-03-17T05:51:52.967Z,4.47
2023-03-17T05:54:22.231Z,4.88
2023-03-17T05:56:50.701Z,5.12
2023-03-17T05:59:20.297Z,5.25
2023-03-17T06:01:48.791Z,5.28
2023-03-17T06:04:17.434Z,5.47
2023-03-17T06:06:45.464Z,5.65
2023-03-17T06:09:13.727Z,5.66
2023-03-17T06:11:44.757Z,5.67
2023-03-17T06:14:13.173Z,5.66
2023-03-17T06:16:42.801Z,5.60
2023-03-17T06:19:11.077Z,5.63
2023-03-17T06:21:39.268Z,5.59
2023-03-17T06:24:10.084Z,5.49
2023-03-17T06:26:39.669Z,5.28
2023-03-17T06:29:10.096Z,4.84
2023-03-17T06:31:38.664Z,4.56
2023-03-17T06:34:09.586Z,4.39
2023-03-17T06:36:39.507Z,4.30
2023-03-17T06:39:08.024Z,4.30
2023-03-17T06:41:37.467Z,4.29
2023-03-17T06:44:06.282Z,4.29
2023-03-17T06:46:36.242Z,4.33
2023-03-17T06:49:04.966Z,4.38
2023-03-17T06:51:37.861Z,4.46
2023-03-17T06:54:06.565Z,4.52
2023-03-17T06:56:35.481Z,4.56
2023-03-17T06:59:03.641Z,4.56
2023-03-17T07:01:31.827Z,4.63
2023-03-17T07:04:01.077Z,4.66
2023-03-17T07:06:29.580Z,4.70
2023-03-17T07:09:01.625Z,4.84
2023-03-17T07:11:30.796Z,4.99
2023-03-17T07:13:58.794Z,5.15
2023-03-17T07:16:27.490Z,5.35
2023-03-17T07:18:55.975Z,5.49
2023-03-17T07:21:24.370Z,5.59
2023-03-17T07:23:52.479Z,5.63
2023-03-17T07:26:23.241Z,5.66
2023-03-17T07:28:53.278Z,5.71
2023-03-17T07:31:21.865Z,5.71
2023-03-17T07:33:51.176Z,5.77
2023-03-17T07:36:19.296Z,5.74
2023-03-17T07:38:48.632Z,5.73
2023-03-17T07:41:22.316Z,5.76
2023-03-17T07:43:51.955Z,5.93
2023-03-17T07:46:20.206Z,6.22
2023-03-17T07:48:48.292Z,6.52
2023-03-17T07:51:19.076Z,6.92
2023-03-17T07:53:48.540Z,7.36
2023-03-17T07:56:17.840Z,7.55
2023-03-17T07:58:46.217Z,7.42
2023-03-17T08:01:16.552Z,7.27
2023-03-17T08:03:45.208Z,7.20
2023-03-17T08:06:13.319Z,7.13
2023-03-17T08:08:42.745Z,7.11
2023-03-17T08:11:10.877Z,7.34
2023-03-17T08:13:39.499Z,7.73
2023-03-17T08:16:09.818Z,8.16
2023-03-17T08:18:39.534Z,8.48
2023-03-17T08:21:10.003Z,8.64
2023-03-17T08:23:38.479Z,8.48
2023-03-17T08:26:07.357Z,8.27
2023-03-17T08:28:36.171Z,8.09
2023-03-17T08:31:12.239Z,7.94
2023-03-17T08:33:43.660Z,7.85
2023-03-17T08:36:12.811Z,7.85
2023-03-17T08:38:45.275Z,7.81
2023-03-17T08:41:18.249Z,7.85
2023-03-17T08:43:48.097Z,7.86
2023-03-17T08:46:20.341Z,7.89
2023-03-17T08:48:51.089Z,7.93
2023-03-17T08:51:22.845Z,7.94
2023-03-17T08:53:54.389Z,8.07
2023-03-17T08:56:22.805Z,8.21
2023-03-17T08:58:53.905Z,8.27
2023-03-17T09:01:23.122Z,8.40
2023-03-17T09:03:54.782Z,8.52
2023-03-17T09:06:23.290Z,8.76
2023-03-17T09:08:55.553Z,9.02
2023-03-17T09:11:24.544Z,9.30
2023-03-17T09:13:55.537Z,9.60
2023-03-17T09:16:24.332Z,9.82
2023-03-17T09:18:56.480Z,9.89
2023-03-17T09:21:25.218Z,9.98
2023-03-17T09:23:53.352Z,10.08
2023-03-17T09:26:26.157Z,10.23
2023-03-17T09:28:54.528Z,10.39
2023-03-17T09:31:22.813Z,10.50
2023-03-17T09:33:52.637Z,10.76
2023-03-17T09:36:22.059Z,10.83
2023-03-17T09:38:51.261Z,10.95
2023-03-17T09:41:34.263Z,11.21
2023-03-17T09:44:09.322Z,11.40
2023-03-17T09:46:47.882Z,11.47
2023-03-17T09:49:21.187Z,11.46
2023-03-17T09:51:51.097Z,11.36
2023-03-17T09:54:26.237Z,11.31
2023-03-17T09:56:59.224Z,11.24
2023-03-17T09:59:31.374Z,11.32
2023-03-17T10:01:59.823Z,11.43
2023-03-17T10:04:28.500Z,11.45
2023-03-17T10:07:02.631Z,11.53
2023-03-17T10:09:35.733Z,11.73
2023-03-17T10:12:07.606Z,11.97
2023-03-17T10:14:51.119Z,12.14
2023-03-17T10:17:21.833Z,12.39
2023-03-17T10:19:56.625Z,12.49
2023-03-17T10:22:32.197Z,12.66
2023-03-17T10:25:04.056Z,12.77
2023-03-17T10:27:36.977Z,12.87
2023-03-17T10:30:06.346Z,12.96
2023-03-17T10:32:40.428Z,13.10
2023-03-17T10:35:09.623Z,13.13
2023-03-17T10:37:43.898Z,13.14
2023-03-17T10:40:22.989Z,13.06
2023-03-17T10:42:56.978Z,13.03
2023-03-17T10:45:28.855Z,12.99
2023-03-17T10:47:59.158Z,12.96
2023-03-17T10:50:30.964Z,13.01
2023-03-17T10:53:02.536Z,12.97
2023-03-17T10:55:33.890Z,13.03
2023-03-17T10:58:05.980Z,13.13
2023-03-17T11:00:36.365Z,13.28
2023-03-17T11:03:12.661Z,13.40
2023-03-17T11:05:40.891Z,13.55
2023-03-17T11:08:21.805Z,13.70
2023-03-17T11:10:55.645Z,13.81
2023-03-17T11:13:30.172Z,13.79
2023-03-17T11:16:07.371Z,13.82
2023-03-17T11:18:40.022Z,13.76
2023-03-17T11:21:11.375Z,13.82
2023-03-17T11:23:50.126Z,13.79
2023-03-17T11:26:44.972Z,13.79
2023-03-17T11:29:23.750Z,13.83
2023-03-17T11:31:59.453Z,13.79
2023-03-17T11:34:37.046Z,13.79
2023-03-17T11:37:10.220Z,13.79
2023-03-17T11:39:46.253Z,13.75
2023-03-17T11:42:19.308Z,13.65
2023-03-17T11:45:04.846Z,13.79
2023-03-17T11:47:54.493Z,13.78
2023-03-17T11:50:30.443Z,13.78
2023-03-17T11:53:11.569Z,13.85
2023-03-17T11:55:47.151Z,13.85
2023-03-17T11:58:24.550Z,13.92
2023-03-17T12:00:57.389Z,13.95
2023-03-17T12:03:33.347Z,13.96
2023-03-17T12:06:05.474Z,13.85
2023-03-17T12:08:41.420Z,13.85
2023-03-17T12:11:17.367Z,13.79
2023-03-17T12:13:52.817Z,13.73
2023-03-17T12:16:27.251Z,13.70
2023-03-17T12:19:03.530Z,13.68
2023-03-17T12:21:38.111Z,13.68
2023-03-17T12:24:10.139Z,13.72
2023-03-17T12:26:42.906Z,13.72
2023-03-17T12:29:14.478Z,13.75
2023-03-17T12:31:48.155Z,13.70
2023-03-17T12:34:20.546Z,13.73
2023-03-17T12:36:48.816Z,13.79
2023-03-17T12:39:20.185Z,13.75
2023-03-17T12:42:09.945Z,13.78
2023-03-17T12:44:50.204Z,13.85
2023-03-17T12:47:28.891Z,13.93
2023-03-17T12:50:15.980Z,13.90
2023-03-17T12:53:08.215Z,13.93
2023-03-17T12:55:38.963Z,14.05
2023-03-17T12:58:26.550Z,13.98
2023-03-17T13:01:08.920Z,13.98
2023-03-17T13:03:39.447Z,14.00
2023-03-17T13:06:09.321Z,14.02
2023-03-17T13:08:43.308Z,14.03
2023-03-17T13:11:19.948Z,14.02
2023-03-17T13:14:01.201Z,14.02
2023-03-17T13:16:35.272Z,14.02
2023-03-17T13:19:22.638Z,13.99
2023-03-17T13:22:34.271Z,14.07
2023-03-17T13:25:15.755Z,14.00
2023-03-17T13:27:50.027Z,13.96
2023-03-17T13:30:44.652Z,13.93
2023-03-17T13:33:23.712Z,14.33
2023-03-17T13:36:16.613Z,14.51
2023-03-17T13:39:17.785Z,14.63
2023-03-17T13:42:18.704Z,14.72
2023-03-17T13:45:19.872Z,14.78
2023-03-17T13:47:49.308Z,14.81
2023-03-17T13:50:23.372Z,14.89
2023-03-17T13:52:56.832Z,14.91
2023-03-17T13:56:01.479Z,15.00
2023-03-17T13:58:37.373Z,15.03
2023-03-17T14:01:09.142Z,14.88
2023-03-17T14:03:43.714Z,14.65
2023-03-17T14:06:13.630Z,14.51
2023-03-17T14:08:48.122Z,14.38
2023-03-17T14:11:24.744Z,14.26
2023-03-17T14:14:15.235Z,14.23
2023-03-17T14:16:54.366Z,14.16
2023-03-17T14:19:29.943Z,14.16
2023-03-17T14:22:04.745Z,14.14
2023-03-17T14:24:33.836Z,14.09
2023-03-17T14:27:06.679Z,14.03
2023-03-17T14:29:41.243Z,13.93
2023-03-17T14:32:15.167Z,13.93
2023-03-17T14:34:44.218Z,13.93
2023-03-17T14:37:13.276Z,13.95
2023-03-17T14:39:46.443Z,13.93
2023-03-17T14:42:14.472Z,13.92
2023-03-17T14:44:44.669Z,13.90
2023-03-17T14:47:19.727Z,13.85
2023-03-17T14:49:47.966Z,13.82
2023-03-17T14:52:21.133Z,13.82
2023-03-17T14:54:53.480Z,13.82
2023-03-17T14:57:22.804Z,13.85
2023-03-17T14:59:59.983Z,13.83
2023-03-17T15:02:34.322Z,13.78
2023-03-17T15:05:08.258Z,13.78
2023-03-17T15:07:44.312Z,13.78
2023-03-17T15:10:17.025Z,13.79
2023-03-17T15:12:46.659Z,13.76
2023-03-17T15:15:23.821Z,13.79
2023-03-17T15:17:54.036Z,13.76
2023-03-17T15:20:23.830Z,13.79
2023-03-17T15:22:58.163Z,13.73
2023-03-17T15:25:29.121Z,13.73
2023-03-17T15:27:57.620Z,13.70
2023-03-17T15:30:29.459Z,13.68
2023-03-17T15:33:02.386Z,13.65
2023-03-17T15:35:30.638Z,13.66
2023-03-17T15:37:58.669Z,13.62
2023-03-17T15:40:26.640Z,13.66
2023-03-17T15:42:54.927Z,13.62
2023-03-17T15:45:22.948Z,13.61
2023-03-17T15:47:53.302Z,13.55
2023-03-17T15:50:25.026Z,13.52
2023-03-17T15:52:55.866Z,13.49
2023-03-17T15:55:25.704Z,13.49
2023-03-17T15:57:55.666Z,13.49
2023-03-17T16:00:27.172Z,13.47
2023-03-17T16:03:01.721Z,13.41
2023-03-17T16:05:34.662Z,13.40
2023-03-17T16:08:06.480Z,13.51
2023-03-17T16:10:36.191Z,13.66
2023-03-17T16:13:08.952Z,13.81
2023-03-17T16:15:41.265Z,13.88
2023-03-17T16:18:15.359Z,13.88
2023-03-17T16:20:46.262Z,13.88
2023-03-17T16:23:16.522Z,13.85
2023-03-17T16:25:45.508Z,13.81
2023-03-17T16:28:16.725Z,13.70
2023-03-17T16:30:47.167Z,13.52
2023-03-17T16:33:19.930Z,13.34
2023-03-17T16:35:49.716Z,13.23
2023-03-17T16:38:21.598Z,13.11
2023-03-17T16:40:52.360Z,13.04
2023-03-17T16:43:25.548Z,12.99
2023-03-17T16:45:55.993Z,12.90
2023-03-17T16:48:26.040Z,12.82
2023-03-17T16:50:54.817Z,12.80
2023-03-17T16:53:23.212Z,12.75
2023-03-17T16:55:52.599Z,12.70
2023-03-17T16:58:22.317Z,12.65
2023-03-17T17:00:52.018Z,12.62
2023-03-17T17:03:20.508Z,12.56
2023-03-17T17:05:49.972Z,12.55
2023-03-17T17:08:18.161Z,12.48
2023-03-17T17:10:47.750Z,12.44
2023-03-17T17:13:17.242Z,12.41
2023-03-17T17:15:45.741Z,12.35
2023-03-17T17:18:16.412Z,12.32
2023-03-17T17:20:45.593Z,12.29
2023-03-17T17:23:17.534Z,12.25
2023-03-17T17:25:47.686Z,12.20
2023-03-17T17:28:18.423Z,12.18
2023-03-17T17:30:48.098Z,12.17
2023-03-17T17:33:16.945Z,12.10
2023-03-17T17:35:45.766Z,12.08
2023-03-17T17:38:20.767Z,12.04
2023-03-17T17:40:50.007Z,11.97
2023-03-17T17:43:19.125Z,11.94
2023-03-17T17:45:50.065Z,11.93
2023-03-17T17:48:23.490Z,11.90
2023-03-17T17:50:53.002Z,11.84
2023-03-17T17:53:22.501Z,11.80
2023-03-17T17:55:51.599Z,11.82
2023-03-17T17:58:22.773Z,11.79
2023-03-17T18:00:53.094Z,11.74
2023-03-17T18:03:24.758Z,11.71
2023-03-17T18:05:53.530Z,11.67
2023-03-17T18:08:24.158Z,11.64
2023-03-17T18:10:52.970Z,11.64
2023-03-17T18:13:22.465Z,11.62
2023-03-17T18:15:50.940Z,11.59
2023-03-17T18:18:19.162Z,11.57
2023-03-17T18:20:47.255Z,11.56
2023-03-17T18:23:17.787Z,11.53
2023-03-17T18:25:50.391Z,11.49
2023-03-17T18:28:18.970Z,11.43
2023-03-17T18:30:48.279Z,11.40
2023-03-17T18:33:21.122Z,11.36
2023-03-17T18:35:51.056Z,11.32
2023-03-17T18:38:19.258Z,11.32
2023-03-17T18:40:49.951Z,11.28
2023-03-17T18:43:18.343Z,11.26
2023-03-17T18:45:46.602Z,11.24
2023-03-17T18:48:14.626Z,11.21
2023-03-17T18:50:43.457Z,11.19
2023-03-17T18:53:12.473Z,11.18
2023-03-17T18:55:41.846Z,11.14
2023-03-17T18:58:11.816Z,11.11
2023-03-17T19:00:42.067Z,11.11
2023-03-17T19:03:10.501Z,11.11
2023-03-17T19:05:39.552Z,11.08
2023-03-17T19:08:08.097Z,11.05
2023-03-17T19:10:38.211Z,11.04
2023-03-17T19:13:10.212Z,10.99
2023-03-17T19:15:41.753Z,10.98
2023-03-17T19:18:11.034Z,10.94
2023-03-17T19:20:39.449Z,10.94
2023-03-17T19:23:07.933Z,10.91
2023-03-17T19:25:36.857Z,10.84
2023-03-17T19:28:06.381Z,10.84
2023-03-17T19:30:35.278Z,10.83
2023-03-17T19:33:06.749Z,10.78
2023-03-17T19:35:37.564Z,10.77
2023-03-17T19:38:05.655Z,10.74
2023-03-17T19:40:34.091Z,10.73
2023-03-17T19:43:03.507Z,10.71
2023-03-17T19:45:31.943Z,10.70
2023-03-17T19:48:00.694Z,10.68
2023-03-17T19:50:33.216Z,10.61
2023-03-17T19:53:01.438Z,10.60
2023-03-17T19:55:30.039Z,10.56
2023-03-17T19:57:58.207Z,10.56
2023-03-17T20:00:27.121Z,10.55
2023-03-17T20:02:55.401Z,10.52
2023-03-17T20:05:23.366Z,10.47
2023-03-17T20:07:52.874Z,10.45
2023-03-17T20:10:20.944Z,10.42
2023-03-17T20:12:49.638Z,10.43
2023-03-17T20:15:17.678Z,10.39
2023-03-17T20:17:46.266Z,10.39
2023-03-17T20:20:15.783Z,10.34
2023-03-17T20:22:46.061Z,10.34
2023-03-17T20:25:15.519Z,10.32
2023-03-17T20:27:43.853Z,10.33
2023-03-17T20:30:13.672Z,10.30
2023-03-17T20:32:42.392Z,10.27
2023-03-17T20:35:11.195Z,10.25
2023-03-17T20:37:39.979Z,10.23
2023-03-17T20:40:10.984Z,10.20
2023-03-17T20:42:42.789Z,10.16
2023-03-17T20:45:13.437Z,10.13
2023-03-17T20:47:41.507Z,10.09
2023-03-17T20:50:10.736Z,10.09
2023-03-17T20:52:39.756Z,10.02
2023-03-17T20:55:09.274Z,9.99
2023-03-17T20:57:38.881Z,9.94
2023-03-17T21:00:10.512Z,9.89
2023-03-17T21:02:39.045Z,9.91
2023-03-17T21:05:07.451Z,9.84
2023-03-17T21:07:36.597Z,9.78
2023-03-17T21:10:04.733Z,9.75
2023-03-17T21:12:32.827Z,9.71
2023-03-17T21:15:01.981Z,9.67
2023-03-17T21:17:31.617Z,9.67
2023-03-17T21:20:00.026Z,9.61
2023-03-17T21:22:31.879Z,9.58
2023-03-17T21:24:59.828Z,9.55
2023-03-17T21:27:29.231Z,9.52
2023-03-17T21:29:57.454Z,9.55
2023-03-17T21:32:25.874Z,9.55
2023-03-17T21:34:55.362Z,9.52
2023-03-17T21:37:23.970Z,9.51
2023-03-17T21:39:52.137Z,9.52
2023-03-17T21:42:20.975Z,9.52
2023-03-17T21:44:49.438Z,9.51
2023-03-17T21:47:17.771Z,9.50
2023-03-17T21:49:48.732Z,9.48
2023-03-17T21:52:20.832Z,9.44
2023-03-17T21:54:48.982Z,9.44
2023-03-17T21:57:17.918Z,9.46
2023-03-17T21:59:47.624Z,9.43
2023-03-17T22:02:17.601Z,9.43
2023-03-17T22:04:46.986Z,9.40
2023-03-17T22:07:16.543Z,9.37
2023-03-17T22:09:46.187Z,9.33
2023-03-17T22:12:15.231Z,9.29
2023-03-17T22:14:43.858Z,9.27
2023-03-17T22:17:13.180Z,9.22
2023-03-17T22:19:42.443Z,9.24
2023-03-17T22:22:11.322Z,9.23
2023-03-17T22:24:39.447Z,9.23
2023-03-17T22:27:09.547Z,9.22
2023-03-17T22:29:38.893Z,9.18
2023-03-17T22:32:07.980Z,9.18
2023-03-17T22:34:36.438Z,9.18
2023-03-17T22:37:05.388Z,9.15
2023-03-17T22:39:34.624Z,9.10
2023-03-17T22:42:05.618Z,9.10
2023-03-17T22:44:37.577Z,9.09
2023-03-17T22:47:06.266Z,9.08
2023-03-17T22:49:34.350Z,9.06
2023-03-17T22:52:02.779Z,9.05
2023-03-17T22:54:31.299Z,9.03
2023-03-17T22:57:00.655Z,9.03
2023-03-17T22:59:28.875Z,9.03
2023-03-17T23:02:00.148Z,9.05
2023-03-17T23:04:28.725Z,9.09
2023-03-17T23:06:59.174Z,9.08
2023-03-17T23:09:28.286Z,9.06
2023-03-17T23:11:56.423Z,9.06
2023-03-17T23:14:25.177Z,9.08
2023-03-17T23:16:53.491Z,9.06
2023-03-17T23:19:22.957Z,9.05
2023-03-17T23:21:51.255Z,9.06
2023-03-17T23:24:21.492Z,9.06
2023-03-17T23:26:51.824Z,9.05
2023-03-17T23:29:20.158Z,9.06
2023-03-17T23:31:48.612Z,9.06
2023-03-17T23:34:17.034Z,9.08
2023-03-17T23:36:46.759Z,9.05
2023-03-17T23:39:15.208Z,9.08
2023-03-17T23:41:45.516Z,9.06
2023-03-17T23:44:14.568Z,9.05
2023-03-17T23:46:45.265Z,9.06
2023-03-17T23:49:15.768Z,9.06
2023-03-17T23:51:44.012Z,9.06
2023-03-17T23:54:14.310Z,9.08
2023-03-17T23:56:42.495Z,9.06
2023-03-17T23:59:10.774Z,9.09
